sensor_id;sensor_type;location;lat;lon;timestamp;P1;durP1;ratioP1;P2;durP2;ratioP2
66741;SDS011;53654;54.152;19.432;2023-04-24T00:00:52;9.80;;;8.90;;
66741;SDS011;53654;54.152;19.432;2023-04-24T00:03:24;9.70;;;8.90;;
66741;SDS011;53654;54.152;19.432;2023-04-24T00:05:54;9.90;;;9.00;;
66741;SDS011;53654;54.152;19.432;2023-04-24T00:08:22;10.00;;;9.20;;
66741;SDS011;53654;54.152;19.432;2023-04-24T00:10:51;10.10;;;9.20;;
66741;SDS011;53654;54.152;19.432;2023-04-24T00:13:20;9.60;;;8.90;;
66741;SDS011;53654;54.152;19.432;2023-04-24T00:15:48;9.70;;;8.90;;
66741;SDS011;53654;54.152;19.432;2023-04-24T00:18:16;9.80;;;9.00;;
66741;SDS011;53654;54.152;19.432;2023-04-24T00:20:44;9.20;;;8.40;;
66741;SDS011;53654;54.152;19.432;2023-04-24T00:23:12;8.80;;;8.10;;
66741;SDS011;53654;54.152;19.432;2023-04-24T00:25:40;8.50;;;7.90;;
66741;SDS011;53654;54.152;19.432;2023-04-24T00:28:08;9.50;;;8.70;;
66741;SDS011;53654;54.152;19.432;2023-04-24T00:30:36;9.50;;;8.70;;
66741;SDS011;53654;54.152;19.432;2023-04-24T00:33:05;9.60;;;8.80;;
66741;SDS011;53654;54.152;19.432;2023-04-24T00:35:33;9.10;;;8.40;;
66741;SDS011;53654;54.152;19.432;2023-04-24T00:38:01;8.80;;;8.10;;
66741;SDS011;53654;54.152;19.432;2023-04-24T00:40:29;8.60;;;7.90;;
66741;SDS011;53654;54.152;19.432;2023-04-24T00:42:57;8.60;;;7.90;;
66741;SDS011;53654;54.152;19.432;2023-04-24T00:45:26;9.10;;;8.30;;
66741;SDS011;53654;54.152;19.432;2023-04-24T00:47:54;8.60;;;7.90;;
66741;SDS011;53654;54.152;19.432;2023-04-24T00:50:23;8.80;;;8.10;;
66741;SDS011;53654;54.152;19.432;2023-04-24T00:52:51;8.80;;;8.10;;
66741;SDS011;53654;54.152;19.432;2023-04-24T00:55:20;8.60;;;7.90;;
66741;SDS011;53654;54.152;19.432;2023-04-24T00:57:48;8.50;;;7.80;;
66741;SDS011;53654;54.152;19.432;2023-04-24T01:00:17;8.30;;;7.60;;
66741;SDS011;53654;54.152;19.432;2023-04-24T01:02:45;8.70;;;8.00;;
66741;SDS011;53654;54.152;19.432;2023-04-24T01:05:16;8.50;;;7.80;;
66741;SDS011;53654;54.152;19.432;2023-04-24T01:07:45;8.30;;;7.60;;
66741;SDS011;53654;54.152;19.432;2023-04-24T01:10:16;7.90;;;7.30;;
66741;SDS011;53654;54.152;19.432;2023-04-24T01:12:46;8.40;;;7.70;;
66741;SDS011;53654;54.152;19.432;2023-04-24T01:25:02;7.60;;;7.10;;
66741;SDS011;53654;54.152;19.432;2023-04-24T01:27:31;7.60;;;7.10;;
66741;SDS011;53654;54.152;19.432;2023-04-24T01:29:59;8.00;;;7.40;;
66741;SDS011;53654;54.152;19.432;2023-04-24T01:32:29;8.40;;;7.70;;
66741;SDS011;53654;54.152;19.432;2023-04-24T01:34:57;8.40;;;7.60;;
66741;SDS011;53654;54.152;19.432;2023-04-24T01:37:26;7.80;;;7.20;;
66741;SDS011;53654;54.152;19.432;2023-04-24T01:39:54;8.20;;;7.50;;
66741;SDS011;53654;54.152;19.432;2023-04-24T01:42:22;8.20;;;7.60;;
66741;SDS011;53654;54.152;19.432;2023-04-24T01:44:50;7.80;;;7.20;;
66741;SDS011;53654;54.152;19.432;2023-04-24T01:47:19;8.20;;;7.60;;
66741;SDS011;53654;54.152;19.432;2023-04-24T01:49:47;7.70;;;7.10;;
66741;SDS011;53654;54.152;19.432;2023-04-24T01:52:17;8.40;;;7.70;;
66741;SDS011;53654;54.152;19.432;2023-04-24T01:54:47;7.90;;;7.40;;
66741;SDS011;53654;54.152;19.432;2023-04-24T01:57:17;7.80;;;7.20;;
66741;SDS011;53654;54.152;19.432;2023-04-24T01:59:45;8.30;;;7.70;;
66741;SDS011;53654;54.152;19.432;2023-04-24T02:02:13;8.60;;;7.90;;
66741;SDS011;53654;54.152;19.432;2023-04-24T02:04:41;8.70;;;7.90;;
66741;SDS011;53654;54.152;19.432;2023-04-24T02:07:09;8.70;;;8.00;;
66741;SDS011;53654;54.152;19.432;2023-04-24T02:09:37;11.30;;;10.40;;
66741;SDS011;53654;54.152;19.432;2023-04-24T02:12:05;11.40;;;10.50;;
66741;SDS011;53654;54.152;19.432;2023-04-24T02:14:33;12.00;;;11.00;;
66741;SDS011;53654;54.152;19.432;2023-04-24T02:17:03;12.50;;;11.30;;
66741;SDS011;53654;54.152;19.432;2023-04-24T02:19:32;12.90;;;11.70;;
66741;SDS011;53654;54.152;19.432;2023-04-24T02:22:00;12.50;;;11.50;;
66741;SDS011;53654;54.152;19.432;2023-04-24T02:24:28;13.00;;;12.00;;
66741;SDS011;53654;54.152;19.432;2023-04-24T02:26:56;12.10;;;11.10;;
66741;SDS011;53654;54.152;19.432;2023-04-24T02:29:25;13.50;;;12.30;;
66741;SDS011;53654;54.152;19.432;2023-04-24T02:31:53;13.00;;;11.90;;
66741;SDS011;53654;54.152;19.432;2023-04-24T02:34:21;13.40;;;12.30;;
66741;SDS011;53654;54.152;19.432;2023-04-24T02:36:50;13.00;;;12.00;;
66741;SDS011;53654;54.152;19.432;2023-04-24T02:39:19;14.10;;;13.00;;
66741;SDS011;53654;54.152;19.432;2023-04-24T02:41:47;13.50;;;12.30;;
66741;SDS011;53654;54.152;19.432;2023-04-24T02:44:16;12.70;;;11.70;;
66741;SDS011;53654;54.152;19.432;2023-04-24T02:46:44;12.60;;;11.60;;
66741;SDS011;53654;54.152;19.432;2023-04-24T02:49:13;12.40;;;11.40;;
66741;SDS011;53654;54.152;19.432;2023-04-24T02:51:41;12.30;;;11.20;;
66741;SDS011;53654;54.152;19.432;2023-04-24T02:54:09;12.00;;;11.10;;
66741;SDS011;53654;54.152;19.432;2023-04-24T02:56:39;12.60;;;11.50;;
66741;SDS011;53654;54.152;19.432;2023-04-24T02:59:08;11.90;;;11.00;;
66741;SDS011;53654;54.152;19.432;2023-04-24T03:01:36;11.90;;;11.00;;
66741;SDS011;53654;54.152;19.432;2023-04-24T03:04:04;12.00;;;10.90;;
66741;SDS011;53654;54.152;19.432;2023-04-24T03:06:33;12.10;;;11.20;;
66741;SDS011;53654;54.152;19.432;2023-04-24T03:09:03;11.10;;;10.20;;
66741;SDS011;53654;54.152;19.432;2023-04-24T03:11:32;9.90;;;9.10;;
66741;SDS011;53654;54.152;19.432;2023-04-24T03:14:00;8.90;;;8.30;;
66741;SDS011;53654;54.152;19.432;2023-04-24T03:16:28;8.80;;;8.10;;
66741;SDS011;53654;54.152;19.432;2023-04-24T03:18:56;9.10;;;8.30;;
66741;SDS011;53654;54.152;19.432;2023-04-24T03:21:25;8.60;;;8.00;;
66741;SDS011;53654;54.152;19.432;2023-04-24T03:23:54;9.00;;;8.30;;
66741;SDS011;53654;54.152;19.432;2023-04-24T03:26:22;9.10;;;8.40;;
66741;SDS011;53654;54.152;19.432;2023-04-24T03:29:01;8.90;;;8.20;;
66741;SDS011;53654;54.152;19.432;2023-04-24T03:31:29;9.70;;;8.90;;
66741;SDS011;53654;54.152;19.432;2023-04-24T03:33:57;9.50;;;8.70;;
66741;SDS011;53654;54.152;19.432;2023-04-24T03:36:26;9.50;;;8.70;;
66741;SDS011;53654;54.152;19.432;2023-04-24T03:38:54;9.90;;;9.10;;
66741;SDS011;53654;54.152;19.432;2023-04-24T03:41:29;12.50;;;11.50;;
66741;SDS011;53654;54.152;19.432;2023-04-24T03:44:20;11.80;;;10.80;;
66741;SDS011;53654;54.152;19.432;2023-04-24T03:46:48;12.30;;;11.10;;
66741;SDS011;53654;54.152;19.432;2023-04-24T03:49:16;11.70;;;10.70;;
66741;SDS011;53654;54.152;19.432;2023-04-24T03:51:45;11.90;;;10.80;;
66741;SDS011;53654;54.152;19.432;2023-04-24T03:54:23;11.80;;;10.80;;
66741;SDS011;53654;54.152;19.432;2023-04-24T03:56:52;12.00;;;10.80;;
66741;SDS011;53654;54.152;19.432;2023-04-24T03:59:21;11.00;;;10.10;;
66741;SDS011;53654;54.152;19.432;2023-04-24T04:01:58;11.20;;;10.10;;
66741;SDS011;53654;54.152;19.432;2023-04-24T04:04:26;11.00;;;10.10;;
66741;SDS011;53654;54.152;19.432;2023-04-24T04:06:55;12.00;;;10.80;;
66741;SDS011;53654;54.152;19.432;2023-04-24T04:09:24;12.10;;;11.00;;
66741;SDS011;53654;54.152;19.432;2023-04-24T04:11:52;11.00;;;10.10;;
66741;SDS011;53654;54.152;19.432;2023-04-24T04:14:21;10.30;;;9.40;;
66741;SDS011;53654;54.152;19.432;2023-04-24T04:16:49;9.30;;;8.60;;
66741;SDS011;53654;54.152;19.432;2023-04-24T04:19:21;10.00;;;9.20;;
66741;SDS011;53654;54.152;19.432;2023-04-24T04:21:49;9.80;;;9.00;;
66741;SDS011;53654;54.152;19.432;2023-04-24T04:24:29;9.50;;;8.60;;
66741;SDS011;53654;54.152;19.432;2023-04-24T04:26:58;10.40;;;9.50;;
66741;SDS011;53654;54.152;19.432;2023-04-24T04:29:33;10.40;;;9.50;;
66741;SDS011;53654;54.152;19.432;2023-04-24T04:32:03;10.40;;;9.40;;
66741;SDS011;53654;54.152;19.432;2023-04-24T04:34:31;11.10;;;10.00;;
66741;SDS011;53654;54.152;19.432;2023-04-24T04:37:01;11.40;;;10.30;;
66741;SDS011;53654;54.152;19.432;2023-04-24T04:40:02;11.90;;;10.80;;
66741;SDS011;53654;54.152;19.432;2023-04-24T04:42:39;11.70;;;10.70;;
66741;SDS011;53654;54.152;19.432;2023-04-24T04:45:08;12.50;;;10.90;;
66741;SDS011;53654;54.152;19.432;2023-04-24T04:47:48;14.60;;;11.50;;
66741;SDS011;53654;54.152;19.432;2023-04-24T04:50:17;12.20;;;11.00;;
66741;SDS011;53654;54.152;19.432;2023-04-24T04:52:47;13.70;;;11.10;;
66741;SDS011;53654;54.152;19.432;2023-04-24T04:55:22;11.30;;;10.30;;
66741;SDS011;53654;54.152;19.432;2023-04-24T04:58:04;12.20;;;11.00;;
66741;SDS011;53654;54.152;19.432;2023-04-24T05:00:33;11.20;;;10.20;;
66741;SDS011;53654;54.152;19.432;2023-04-24T05:03:07;11.50;;;10.40;;
66741;SDS011;53654;54.152;19.432;2023-04-24T05:05:47;11.80;;;10.70;;
66741;SDS011;53654;54.152;19.432;2023-04-24T05:08:17;11.40;;;10.30;;
66741;SDS011;53654;54.152;19.432;2023-04-24T05:10:54;10.90;;;9.90;;
66741;SDS011;53654;54.152;19.432;2023-04-24T05:13:23;11.60;;;10.50;;
66741;SDS011;53654;54.152;19.432;2023-04-24T05:16:09;11.10;;;10.10;;
66741;SDS011;53654;54.152;19.432;2023-04-24T05:18:38;10.80;;;9.80;;
66741;SDS011;53654;54.152;19.432;2023-04-24T05:21:07;10.30;;;9.50;;
66741;SDS011;53654;54.152;19.432;2023-04-24T05:23:35;10.50;;;9.60;;
66741;SDS011;53654;54.152;19.432;2023-04-24T05:26:03;10.50;;;9.60;;
66741;SDS011;53654;54.152;19.432;2023-04-24T05:28:34;10.90;;;9.90;;
66741;SDS011;53654;54.152;19.432;2023-04-24T05:31:07;11.00;;;9.90;;
66741;SDS011;53654;54.152;19.432;2023-04-24T05:33:36;10.60;;;9.70;;
66741;SDS011;53654;54.152;19.432;2023-04-24T05:36:04;11.10;;;10.10;;
66741;SDS011;53654;54.152;19.432;2023-04-24T05:38:34;10.90;;;9.80;;
66741;SDS011;53654;54.152;19.432;2023-04-24T05:41:02;10.80;;;9.90;;
66741;SDS011;53654;54.152;19.432;2023-04-24T05:43:30;11.00;;;10.00;;
66741;SDS011;53654;54.152;19.432;2023-04-24T05:45:58;10.90;;;10.10;;
66741;SDS011;53654;54.152;19.432;2023-04-24T05:48:27;11.10;;;10.20;;
66741;SDS011;53654;54.152;19.432;2023-04-24T05:50:55;10.80;;;9.90;;
66741;SDS011;53654;54.152;19.432;2023-04-24T05:53:23;10.70;;;9.80;;
66741;SDS011;53654;54.152;19.432;2023-04-24T05:55:52;10.90;;;10.00;;
66741;SDS011;53654;54.152;19.432;2023-04-24T05:58:20;10.90;;;10.00;;
66741;SDS011;53654;54.152;19.432;2023-04-24T06:00:49;11.40;;;10.40;;
66741;SDS011;53654;54.152;19.432;2023-04-24T06:03:18;11.20;;;10.30;;
66741;SDS011;53654;54.152;19.432;2023-04-24T06:05:49;11.30;;;10.40;;
66741;SDS011;53654;54.152;19.432;2023-04-24T06:08:21;11.50;;;10.50;;
66741;SDS011;53654;54.152;19.432;2023-04-24T06:10:49;11.40;;;10.40;;
66741;SDS011;53654;54.152;19.432;2023-04-24T06:13:18;11.70;;;10.70;;
66741;SDS011;53654;54.152;19.432;2023-04-24T06:16:04;10.80;;;9.90;;
66741;SDS011;53654;54.152;19.432;2023-04-24T06:18:35;11.30;;;10.20;;
66741;SDS011;53654;54.152;19.432;2023-04-24T06:21:04;11.90;;;10.10;;
66741;SDS011;53654;54.152;19.432;2023-04-24T06:23:33;12.20;;;10.40;;
66741;SDS011;53654;54.152;19.432;2023-04-24T06:26:01;11.80;;;10.70;;
66741;SDS011;53654;54.152;19.432;2023-04-24T06:28:29;11.80;;;10.60;;
66741;SDS011;53654;54.152;19.432;2023-04-24T06:30:58;11.60;;;10.50;;
66741;SDS011;53654;54.152;19.432;2023-04-24T06:33:26;13.30;;;10.40;;
66741;SDS011;53654;54.152;19.432;2023-04-24T06:35:54;11.00;;;10.10;;
66741;SDS011;53654;54.152;19.432;2023-04-24T06:38:22;11.80;;;10.70;;
66741;SDS011;53654;54.152;19.432;2023-04-24T06:40:50;12.30;;;10.40;;
66741;SDS011;53654;54.152;19.432;2023-04-24T06:43:18;14.80;;;10.90;;
66741;SDS011;53654;54.152;19.432;2023-04-24T06:45:47;13.00;;;10.90;;
66741;SDS011;53654;54.152;19.432;2023-04-24T06:48:15;14.30;;;11.30;;
66741;SDS011;53654;54.152;19.432;2023-04-24T06:50:43;13.40;;;10.80;;
66741;SDS011;53654;54.152;19.432;2023-04-24T06:53:11;14.10;;;11.50;;
66741;SDS011;53654;54.152;19.432;2023-04-24T06:55:40;15.50;;;11.70;;
66741;SDS011;53654;54.152;19.432;2023-04-24T06:58:08;13.10;;;11.80;;
66741;SDS011;53654;54.152;19.432;2023-04-24T07:00:37;14.80;;;11.40;;
66741;SDS011;53654;54.152;19.432;2023-04-24T07:03:05;12.80;;;11.60;;
66741;SDS011;53654;54.152;19.432;2023-04-24T07:05:33;14.50;;;12.20;;
66741;SDS011;53654;54.152;19.432;2023-04-24T07:08:03;14.70;;;11.90;;
66741;SDS011;53654;54.152;19.432;2023-04-24T07:10:31;13.70;;;11.90;;
66741;SDS011;53654;54.152;19.432;2023-04-24T07:12:59;12.70;;;11.40;;
66741;SDS011;53654;54.152;19.432;2023-04-24T07:15:27;12.90;;;11.40;;
66741;SDS011;53654;54.152;19.432;2023-04-24T07:17:55;12.40;;;11.20;;
66741;SDS011;53654;54.152;19.432;2023-04-24T07:20:23;12.90;;;11.30;;
66741;SDS011;53654;54.152;19.432;2023-04-24T07:22:51;12.70;;;11.10;;
66741;SDS011;53654;54.152;19.432;2023-04-24T07:25:21;14.90;;;11.60;;
66741;SDS011;53654;54.152;19.432;2023-04-24T07:27:49;13.10;;;11.70;;
66741;SDS011;53654;54.152;19.432;2023-04-24T07:30:17;17.80;;;11.50;;
66741;SDS011;53654;54.152;19.432;2023-04-24T07:32:45;12.70;;;10.70;;
66741;SDS011;53654;54.152;19.432;2023-04-24T07:35:13;11.50;;;10.10;;
66741;SDS011;53654;54.152;19.432;2023-04-24T07:37:42;11.20;;;10.00;;
66741;SDS011;53654;54.152;19.432;2023-04-24T07:40:13;10.80;;;9.80;;
66741;SDS011;53654;54.152;19.432;2023-04-24T07:42:42;11.10;;;10.10;;
66741;SDS011;53654;54.152;19.432;2023-04-24T07:45:10;12.10;;;10.30;;
66741;SDS011;53654;54.152;19.432;2023-04-24T07:47:38;11.00;;;9.90;;
66741;SDS011;53654;54.152;19.432;2023-04-24T07:50:07;11.80;;;9.60;;
66741;SDS011;53654;54.152;19.432;2023-04-24T07:52:35;10.60;;;9.60;;
66741;SDS011;53654;54.152;19.432;2023-04-24T07:55:03;10.60;;;9.50;;
66741;SDS011;53654;54.152;19.432;2023-04-24T07:57:32;10.80;;;9.50;;
66741;SDS011;53654;54.152;19.432;2023-04-24T08:00:00;9.80;;;8.90;;
66741;SDS011;53654;54.152;19.432;2023-04-24T08:02:37;10.50;;;9.40;;
66741;SDS011;53654;54.152;19.432;2023-04-24T08:05:06;9.70;;;8.90;;
66741;SDS011;53654;54.152;19.432;2023-04-24T08:07:35;10.70;;;9.70;;
66741;SDS011;53654;54.152;19.432;2023-04-24T08:10:03;10.30;;;9.00;;
66741;SDS011;53654;54.152;19.432;2023-04-24T08:12:32;11.40;;;9.50;;
66741;SDS011;53654;54.152;19.432;2023-04-24T08:15:00;10.00;;;9.10;;
66741;SDS011;53654;54.152;19.432;2023-04-24T08:17:28;9.70;;;8.80;;
66741;SDS011;53654;54.152;19.432;2023-04-24T08:20:00;9.20;;;8.40;;
66741;SDS011;53654;54.152;19.432;2023-04-24T08:22:29;9.30;;;8.40;;
66741;SDS011;53654;54.152;19.432;2023-04-24T08:24:59;10.40;;;8.80;;
66741;SDS011;53654;54.152;19.432;2023-04-24T08:27:27;9.50;;;8.50;;
66741;SDS011;53654;54.152;19.432;2023-04-24T08:29:56;9.20;;;8.20;;
66741;SDS011;53654;54.152;19.432;2023-04-24T08:32:25;8.90;;;8.10;;
66741;SDS011;53654;54.152;19.432;2023-04-24T08:34:56;8.80;;;8.10;;
66741;SDS011;53654;54.152;19.432;2023-04-24T08:37:26;9.20;;;8.20;;
66741;SDS011;53654;54.152;19.432;2023-04-24T08:39:54;9.60;;;8.60;;
66741;SDS011;53654;54.152;19.432;2023-04-24T08:42:23;9.30;;;7.90;;
66741;SDS011;53654;54.152;19.432;2023-04-24T08:44:51;10.00;;;8.20;;
66741;SDS011;53654;54.152;19.432;2023-04-24T08:47:20;9.10;;;8.10;;
66741;SDS011;53654;54.152;19.432;2023-04-24T08:49:48;9.20;;;7.70;;
66741;SDS011;53654;54.152;19.432;2023-04-24T08:52:18;9.00;;;7.70;;
66741;SDS011;53654;54.152;19.432;2023-04-24T08:54:47;11.50;;;8.00;;
66741;SDS011;53654;54.152;19.432;2023-04-24T08:57:15;8.80;;;7.90;;
66741;SDS011;53654;54.152;19.432;2023-04-24T08:59:44;9.00;;;8.20;;
66741;SDS011;53654;54.152;19.432;2023-04-24T09:02:12;9.20;;;8.30;;
66741;SDS011;53654;54.152;19.432;2023-04-24T09:04:42;8.50;;;7.30;;
66741;SDS011;53654;54.152;19.432;2023-04-24T09:07:12;8.60;;;7.70;;
66741;SDS011;53654;54.152;19.432;2023-04-24T09:09:42;8.00;;;7.30;;
66741;SDS011;53654;54.152;19.432;2023-04-24T09:12:11;9.20;;;8.30;;
66741;SDS011;53654;54.152;19.432;2023-04-24T09:14:39;8.90;;;8.00;;
66741;SDS011;53654;54.152;19.432;2023-04-24T09:17:10;8.20;;;7.30;;
66741;SDS011;53654;54.152;19.432;2023-04-24T09:19:40;7.40;;;6.70;;
66741;SDS011;53654;54.152;19.432;2023-04-24T09:22:09;9.10;;;8.20;;
66741;SDS011;53654;54.152;19.432;2023-04-24T09:24:39;7.50;;;6.10;;
66741;SDS011;53654;54.152;19.432;2023-04-24T09:27:07;6.00;;;5.40;;
66741;SDS011;53654;54.152;19.432;2023-04-24T09:29:38;5.30;;;4.90;;
66741;SDS011;53654;54.152;19.432;2023-04-24T09:32:18;5.10;;;4.60;;
66741;SDS011;53654;54.152;19.432;2023-04-24T09:35:04;4.50;;;4.10;;
66741;SDS011;53654;54.152;19.432;2023-04-24T09:37:37;4.50;;;3.90;;
66741;SDS011;53654;54.152;19.432;2023-04-24T09:42:45;4.70;;;4.30;;
66741;SDS011;53654;54.152;19.432;2023-04-24T09:45:14;4.20;;;3.80;;
66741;SDS011;53654;54.152;19.432;2023-04-24T09:47:43;4.40;;;3.90;;
66741;SDS011;53654;54.152;19.432;2023-04-24T09:50:15;4.20;;;3.90;;
66741;SDS011;53654;54.152;19.432;2023-04-24T09:52:55;4.30;;;4.00;;
66741;SDS011;53654;54.152;19.432;2023-04-24T09:55:25;4.90;;;4.30;;
66741;SDS011;53654;54.152;19.432;2023-04-24T10:03:04;4.20;;;3.80;;
66741;SDS011;53654;54.152;19.432;2023-04-24T10:05:37;5.30;;;4.80;;
66741;SDS011;53654;54.152;19.432;2023-04-24T10:08:07;5.10;;;4.60;;
66741;SDS011;53654;54.152;19.432;2023-04-24T10:10:40;4.60;;;4.20;;
66741;SDS011;53654;54.152;19.432;2023-04-24T10:13:13;4.80;;;4.30;;
66741;SDS011;53654;54.152;19.432;2023-04-24T10:15:43;4.40;;;4.00;;
66741;SDS011;53654;54.152;19.432;2023-04-24T10:18:12;5.10;;;4.50;;
66741;SDS011;53654;54.152;19.432;2023-04-24T10:20:40;5.20;;;4.60;;
66741;SDS011;53654;54.152;19.432;2023-04-24T10:23:09;4.50;;;4.20;;
66741;SDS011;53654;54.152;19.432;2023-04-24T10:25:38;4.20;;;3.90;;
66741;SDS011;53654;54.152;19.432;2023-04-24T10:28:06;5.10;;;4.60;;
66741;SDS011;53654;54.152;19.432;2023-04-24T10:30:37;5.80;;;4.70;;
66741;SDS011;53654;54.152;19.432;2023-04-24T10:33:10;5.30;;;4.50;;
66741;SDS011;53654;54.152;19.432;2023-04-24T10:35:44;4.70;;;4.30;;
66741;SDS011;53654;54.152;19.432;2023-04-24T10:38:18;5.20;;;4.30;;
66741;SDS011;53654;54.152;19.432;2023-04-24T10:40:57;4.40;;;4.10;;
66741;SDS011;53654;54.152;19.432;2023-04-24T10:43:34;4.80;;;4.30;;
66741;SDS011;53654;54.152;19.432;2023-04-24T10:46:03;4.60;;;4.00;;
66741;SDS011;53654;54.152;19.432;2023-04-24T10:48:33;4.20;;;3.90;;
66741;SDS011;53654;54.152;19.432;2023-04-24T10:51:02;4.40;;;4.00;;
66741;SDS011;53654;54.152;19.432;2023-04-24T10:53:30;4.50;;;4.20;;
66741;SDS011;53654;54.152;19.432;2023-04-24T10:56:08;6.20;;;4.30;;
66741;SDS011;53654;54.152;19.432;2023-04-24T10:58:38;5.90;;;4.30;;
66741;SDS011;53654;54.152;19.432;2023-04-24T11:01:08;4.40;;;3.90;;
66741;SDS011;53654;54.152;19.432;2023-04-24T11:03:36;5.80;;;4.10;;
66741;SDS011;53654;54.152;19.432;2023-04-24T11:06:06;4.40;;;4.00;;
66741;SDS011;53654;54.152;19.432;2023-04-24T11:08:39;3.90;;;3.60;;
66741;SDS011;53654;54.152;19.432;2023-04-24T11:11:15;4.60;;;4.00;;
66741;SDS011;53654;54.152;19.432;2023-04-24T11:19:03;4.40;;;4.00;;
66741;SDS011;53654;54.152;19.432;2023-04-24T11:21:38;4.50;;;4.10;;
66741;SDS011;53654;54.152;19.432;2023-04-24T11:32:26;4.20;;;3.80;;
66741;SDS011;53654;54.152;19.432;2023-04-24T11:34:57;4.70;;;4.20;;
66741;SDS011;53654;54.152;19.432;2023-04-24T11:37:26;4.80;;;4.20;;
66741;SDS011;53654;54.152;19.432;2023-04-24T11:39:57;4.40;;;4.00;;
66741;SDS011;53654;54.152;19.432;2023-04-24T11:42:26;4.40;;;4.00;;
66741;SDS011;53654;54.152;19.432;2023-04-24T11:44:55;4.80;;;4.00;;
66741;SDS011;53654;54.152;19.432;2023-04-24T11:47:28;4.60;;;5.10;;
66741;SDS011;53654;54.152;19.432;2023-04-24T11:49:57;4.90;;;4.40;;
66741;SDS011;53654;54.152;19.432;2023-04-24T11:52:27;4.70;;;4.30;;
66741;SDS011;53654;54.152;19.432;2023-04-24T11:54:55;4.30;;;3.90;;
66741;SDS011;53654;54.152;19.432;2023-04-24T11:57:24;4.30;;;3.90;;
66741;SDS011;53654;54.152;19.432;2023-04-24T11:59:55;5.40;;;4.60;;
66741;SDS011;53654;54.152;19.432;2023-04-24T12:02:23;4.20;;;3.80;;
66741;SDS011;53654;54.152;19.432;2023-04-24T12:04:54;5.10;;;4.70;;
66741;SDS011;53654;54.152;19.432;2023-04-24T12:07:23;6.70;;;5.90;;
66741;SDS011;53654;54.152;19.432;2023-04-24T12:09:58;6.00;;;5.40;;
66741;SDS011;53654;54.152;19.432;2023-04-24T12:12:28;8.80;;;6.30;;
66741;SDS011;53654;54.152;19.432;2023-04-24T12:14:56;8.90;;;6.20;;
66741;SDS011;53654;54.152;19.432;2023-04-24T12:20:05;6.90;;;5.90;;
66741;SDS011;53654;54.152;19.432;2023-04-24T12:22:54;7.80;;;5.90;;
66741;SDS011;53654;54.152;19.432;2023-04-24T12:25:24;6.20;;;5.60;;
66741;SDS011;53654;54.152;19.432;2023-04-24T12:27:55;7.60;;;5.70;;
66741;SDS011;53654;54.152;19.432;2023-04-24T12:30:43;6.00;;;5.40;;
66741;SDS011;53654;54.152;19.432;2023-04-24T12:33:20;5.90;;;5.00;;
66741;SDS011;53654;54.152;19.432;2023-04-24T12:35:51;6.00;;;4.30;;
66741;SDS011;53654;54.152;19.432;2023-04-24T12:38:25;6.80;;;4.00;;
66741;SDS011;53654;54.152;19.432;2023-04-24T12:41:07;5.50;;;4.00;;
66741;SDS011;53654;54.152;19.432;2023-04-24T12:43:37;5.40;;;3.80;;
66741;SDS011;53654;54.152;19.432;2023-04-24T12:46:05;4.30;;;3.90;;
66741;SDS011;53654;54.152;19.432;2023-04-24T12:48:33;4.40;;;3.80;;
66741;SDS011;53654;54.152;19.432;2023-04-24T12:51:02;4.40;;;3.60;;
66741;SDS011;53654;54.152;19.432;2023-04-24T12:53:30;3.90;;;3.60;;
66741;SDS011;53654;54.152;19.432;2023-04-24T12:55:58;4.10;;;3.00;;
66741;SDS011;53654;54.152;19.432;2023-04-24T12:58:27;3.80;;;2.90;;
66741;SDS011;53654;54.152;19.432;2023-04-24T13:00:55;3.30;;;2.80;;
66741;SDS011;53654;54.152;19.432;2023-04-24T13:03:23;3.70;;;2.90;;
66741;SDS011;53654;54.152;19.432;2023-04-24T13:05:52;3.20;;;2.90;;
66741;SDS011;53654;54.152;19.432;2023-04-24T13:08:20;3.40;;;3.10;;
66741;SDS011;53654;54.152;19.432;2023-04-24T13:10:48;4.30;;;3.20;;
66741;SDS011;53654;54.152;19.432;2023-04-24T13:13:16;5.50;;;2.80;;
66741;SDS011;53654;54.152;19.432;2023-04-24T13:15:44;4.20;;;2.70;;
66741;SDS011;53654;54.152;19.432;2023-04-24T13:18:12;3.00;;;2.80;;
66741;SDS011;53654;54.152;19.432;2023-04-24T13:20:40;3.50;;;2.70;;
66741;SDS011;53654;54.152;19.432;2023-04-24T13:23:09;2.80;;;2.60;;
66741;SDS011;53654;54.152;19.432;2023-04-24T13:25:38;3.00;;;2.70;;
66741;SDS011;53654;54.152;19.432;2023-04-24T13:28:06;3.10;;;2.70;;
66741;SDS011;53654;54.152;19.432;2023-04-24T13:30:34;2.70;;;2.40;;
66741;SDS011;53654;54.152;19.432;2023-04-24T13:33:02;2.80;;;2.60;;
66741;SDS011;53654;54.152;19.432;2023-04-24T13:35:31;3.10;;;2.60;;
66741;SDS011;53654;54.152;19.432;2023-04-24T13:37:59;3.20;;;2.60;;
66741;SDS011;53654;54.152;19.432;2023-04-24T13:40:31;3.00;;;2.80;;
66741;SDS011;53654;54.152;19.432;2023-04-24T13:42:59;2.90;;;2.60;;
66741;SDS011;53654;54.152;19.432;2023-04-24T13:45:28;2.80;;;2.60;;
66741;SDS011;53654;54.152;19.432;2023-04-24T13:47:56;2.80;;;2.60;;
66741;SDS011;53654;54.152;19.432;2023-04-24T13:50:25;3.00;;;2.70;;
66741;SDS011;53654;54.152;19.432;2023-04-24T13:52:53;2.80;;;2.60;;
66741;SDS011;53654;54.152;19.432;2023-04-24T13:55:22;3.10;;;2.80;;
66741;SDS011;53654;54.152;19.432;2023-04-24T13:57:55;3.80;;;2.70;;
66741;SDS011;53654;54.152;19.432;2023-04-24T14:00:23;3.90;;;2.80;;
66741;SDS011;53654;54.152;19.432;2023-04-24T14:02:51;3.20;;;2.90;;
66741;SDS011;53654;54.152;19.432;2023-04-24T14:05:19;4.20;;;3.00;;
66741;SDS011;53654;54.152;19.432;2023-04-24T14:07:50;3.30;;;2.90;;
66741;SDS011;53654;54.152;19.432;2023-04-24T14:10:18;3.30;;;3.00;;
66741;SDS011;53654;54.152;19.432;2023-04-24T14:12:46;3.60;;;3.30;;
66741;SDS011;53654;54.152;19.432;2023-04-24T14:15:14;3.70;;;3.40;;
66741;SDS011;53654;54.152;19.432;2023-04-24T14:17:43;3.50;;;3.20;;
66741;SDS011;53654;54.152;19.432;2023-04-24T14:20:12;3.80;;;3.50;;
66741;SDS011;53654;54.152;19.432;2023-04-24T14:22:40;4.00;;;3.50;;
66741;SDS011;53654;54.152;19.432;2023-04-24T14:25:08;3.70;;;3.40;;
66741;SDS011;53654;54.152;19.432;2023-04-24T14:27:37;3.60;;;3.20;;
66741;SDS011;53654;54.152;19.432;2023-04-24T14:30:05;4.10;;;3.60;;
66741;SDS011;53654;54.152;19.432;2023-04-24T14:32:36;5.70;;;3.60;;
66741;SDS011;53654;54.152;19.432;2023-04-24T14:35:04;4.10;;;3.60;;
66741;SDS011;53654;54.152;19.432;2023-04-24T14:37:34;5.60;;;3.70;;
66741;SDS011;53654;54.152;19.432;2023-04-24T14:40:03;4.20;;;3.60;;
66741;SDS011;53654;54.152;19.432;2023-04-24T14:42:38;3.90;;;3.30;;
66741;SDS011;53654;54.152;19.432;2023-04-24T14:45:06;3.80;;;3.50;;
66741;SDS011;53654;54.152;19.432;2023-04-24T14:47:36;5.50;;;3.60;;
66741;SDS011;53654;54.152;19.432;2023-04-24T14:50:05;4.30;;;3.70;;
66741;SDS011;53654;54.152;19.432;2023-04-24T14:52:33;6.50;;;5.90;;
66741;SDS011;53654;54.152;19.432;2023-04-24T14:55:02;4.30;;;3.80;;
66741;SDS011;53654;54.152;19.432;2023-04-24T14:57:30;4.60;;;4.20;;
66741;SDS011;53654;54.152;19.432;2023-04-24T14:59:58;4.50;;;4.10;;
66741;SDS011;53654;54.152;19.432;2023-04-24T15:02:27;4.40;;;4.00;;
66741;SDS011;53654;54.152;19.432;2023-04-24T15:04:55;5.50;;;4.20;;
66741;SDS011;53654;54.152;19.432;2023-04-24T15:07:24;4.30;;;3.90;;
66741;SDS011;53654;54.152;19.432;2023-04-24T15:09:52;4.50;;;3.60;;
66741;SDS011;53654;54.152;19.432;2023-04-24T15:12:20;5.10;;;4.10;;
66741;SDS011;53654;54.152;19.432;2023-04-24T15:14:49;4.90;;;4.40;;